sensor_id;sensor_type;location;lat;lon;timestamp;P1;durP1;ratioP1;P2;durP2;ratioP2
26718;SDS011;14326;50.794;6.060;2023-06-26T00:00:20;14.88;;;5.72;;
26718;SDS011;14326;50.794;6.060;2023-06-26T00:03:00;18.05;;;5.95;;
26718;SDS011;14326;50.794;6.060;2023-06-26T00:05:51;16.13;;;6.05;;
26718;SDS011;14326;50.794;6.060;2023-06-26T00:08:28;17.67;;;5.75;;
26718;SDS011;14326;50.794;6.060;2023-06-26T00:11:00;15.27;;;5.60;;
26718;SDS011;14326;50.794;6.060;2023-06-26T00:13:30;15.65;;;6.28;;
26718;SDS011;14326;50.794;6.060;2023-06-26T00:16:06;13.70;;;5.68;;
26718;SDS011;14326;50.794;6.060;2023-06-26T00:18:41;14.48;;;5.75;;
26718;SDS011;14326;50.794;6.060;2023-06-26T00:21:13;13.98;;;5.25;;
26718;SDS011;14326;50.794;6.060;2023-06-26T00:23:49;15.25;;;6.15;;
26718;SDS011;14326;50.794;6.060;2023-06-26T00:26:20;13.73;;;5.45;;
26718;SDS011;14326;50.794;6.060;2023-06-26T00:28:54;14.73;;;5.38;;
26718;SDS011;14326;50.794;6.060;2023-06-26T00:31:43;16.95;;;5.88;;
26718;SDS011;14326;50.794;6.060;2023-06-26T00:34:20;17.20;;;5.82;;
26718;SDS011;14326;50.794;6.060;2023-06-26T00:36:52;17.02;;;6.05;;
26718;SDS011;14326;50.794;6.060;2023-06-26T00:39:23;15.40;;;5.57;;
26718;SDS011;14326;50.794;6.060;2023-06-26T00:41:58;15.18;;;5.75;;
26718;SDS011;14326;50.794;6.060;2023-06-26T00:44:30;14.07;;;5.70;;
26718;SDS011;14326;50.794;6.060;2023-06-26T00:47:05;15.27;;;5.78;;
26718;SDS011;14326;50.794;6.060;2023-06-26T00:52:39;14.18;;;5.38;;
26718;SDS011;14326;50.794;6.060;2023-06-26T00:55:28;16.25;;;5.68;;
26718;SDS011;14326;50.794;6.060;2023-06-26T00:58:01;13.98;;;5.10;;
26718;SDS011;14326;50.794;6.060;2023-06-26T01:00:27;12.40;;;4.05;;
26718;SDS011;14326;50.794;6.060;2023-06-26T01:02:54;15.25;;;5.25;;
26718;SDS011;14326;50.794;6.060;2023-06-26T01:05:25;16.00;;;5.47;;
26718;SDS011;14326;50.794;6.060;2023-06-26T01:07:53;16.58;;;5.38;;
26718;SDS011;14326;50.794;6.060;2023-06-26T01:10:24;14.32;;;5.05;;
26718;SDS011;14326;50.794;6.060;2023-06-26T01:13:09;14.43;;;5.18;;
26718;SDS011;14326;50.794;6.060;2023-06-26T01:15:47;13.32;;;4.85;;
26718;SDS011;14326;50.794;6.060;2023-06-26T01:18:32;15.05;;;5.30;;
26718;SDS011;14326;50.794;6.060;2023-06-26T01:21:23;13.80;;;5.40;;
26718;SDS011;14326;50.794;6.060;2023-06-26T01:24:24;15.43;;;5.32;;
26718;SDS011;14326;50.794;6.060;2023-06-26T01:27:18;13.93;;;5.40;;
26718;SDS011;14326;50.794;6.060;2023-06-26T01:29:57;14.70;;;5.68;;
26718;SDS011;14326;50.794;6.060;2023-06-26T01:32:45;12.95;;;4.88;;
26718;SDS011;14326;50.794;6.060;2023-06-26T01:35:16;13.00;;;5.13;;
26718;SDS011;14326;50.794;6.060;2023-06-26T01:37:50;15.77;;;5.80;;
26718;SDS011;14326;50.794;6.060;2023-06-26T01:43:43;15.63;;;5.78;;
26718;SDS011;14326;50.794;6.060;2023-06-26T01:46:25;15.50;;;5.82;;
26718;SDS011;14326;50.794;6.060;2023-06-26T01:49:17;15.20;;;6.18;;
26718;SDS011;14326;50.794;6.060;2023-06-26T01:52:12;14.07;;;5.28;;
26718;SDS011;14326;50.794;6.060;2023-06-26T01:58:04;16.20;;;5.93;;
26718;SDS011;14326;50.794;6.060;2023-06-26T02:00:43;13.48;;;5.07;;
26718;SDS011;14326;50.794;6.060;2023-06-26T02:03:10;16.75;;;5.82;;
26718;SDS011;14326;50.794;6.060;2023-06-26T02:05:36;14.43;;;5.50;;
26718;SDS011;14326;50.794;6.060;2023-06-26T02:08:03;19.52;;;6.28;;
26718;SDS011;14326;50.794;6.060;2023-06-26T02:10:32;16.10;;;5.70;;
26718;SDS011;14326;50.794;6.060;2023-06-26T02:12:59;15.95;;;6.05;;
26718;SDS011;14326;50.794;6.060;2023-06-26T02:15:26;14.52;;;5.45;;
26718;SDS011;14326;50.794;6.060;2023-06-26T02:21:32;15.07;;;5.95;;
26718;SDS011;14326;50.794;6.060;2023-06-26T02:24:00;16.20;;;5.90;;
26718;SDS011;14326;50.794;6.060;2023-06-26T02:26:27;13.30;;;5.22;;
26718;SDS011;14326;50.794;6.060;2023-06-26T02:28:54;19.00;;;6.25;;
26718;SDS011;14326;50.794;6.060;2023-06-26T02:31:20;15.30;;;5.90;;
26718;SDS011;14326;50.794;6.060;2023-06-26T02:33:48;16.00;;;6.00;;
26718;SDS011;14326;50.794;6.060;2023-06-26T02:36:15;15.98;;;6.28;;
26718;SDS011;14326;50.794;6.060;2023-06-26T02:38:42;16.40;;;6.32;;
26718;SDS011;14326;50.794;6.060;2023-06-26T02:41:08;15.13;;;5.80;;
26718;SDS011;14326;50.794;6.060;2023-06-26T02:43:38;17.60;;;6.38;;
26718;SDS011;14326;50.794;6.060;2023-06-26T02:46:17;16.33;;;6.63;;
26718;SDS011;14326;50.794;6.060;2023-06-26T02:48:43;15.85;;;5.97;;
26718;SDS011;14326;50.794;6.060;2023-06-26T02:51:11;16.50;;;5.57;;
26718;SDS011;14326;50.794;6.060;2023-06-26T02:53:38;16.60;;;5.85;;
26718;SDS011;14326;50.794;6.060;2023-06-26T02:56:08;15.93;;;6.07;;
26718;SDS011;14326;50.794;6.060;2023-06-26T02:58:34;16.10;;;5.65;;
26718;SDS011;14326;50.794;6.060;2023-06-26T03:01:01;15.82;;;5.63;;
26718;SDS011;14326;50.794;6.060;2023-06-26T03:03:28;15.30;;;5.32;;
26718;SDS011;14326;50.794;6.060;2023-06-26T03:06:00;14.77;;;5.53;;
26718;SDS011;14326;50.794;6.060;2023-06-26T03:08:41;13.75;;;4.82;;
26718;SDS011;14326;50.794;6.060;2023-06-26T03:11:11;13.27;;;4.70;;
26718;SDS011;14326;50.794;6.060;2023-06-26T03:13:37;18.45;;;4.85;;
26718;SDS011;14326;50.794;6.060;2023-06-26T03:16:10;15.05;;;5.07;;
26718;SDS011;14326;50.794;6.060;2023-06-26T03:18:50;14.98;;;4.70;;
26718;SDS011;14326;50.794;6.060;2023-06-26T03:21:17;14.85;;;5.38;;
26718;SDS011;14326;50.794;6.060;2023-06-26T03:23:45;20.58;;;5.35;;
26718;SDS011;14326;50.794;6.060;2023-06-26T03:26:12;19.13;;;5.53;;
26718;SDS011;14326;50.794;6.060;2023-06-26T03:28:39;17.40;;;5.68;;
26718;SDS011;14326;50.794;6.060;2023-06-26T03:31:22;16.42;;;5.18;;
26718;SDS011;14326;50.794;6.060;2023-06-26T03:34:15;16.10;;;5.85;;
26718;SDS011;14326;50.794;6.060;2023-06-26T03:39:56;16.15;;;5.20;;
26718;SDS011;14326;50.794;6.060;2023-06-26T03:42:25;14.77;;;5.25;;
26718;SDS011;14326;50.794;6.060;2023-06-26T03:44:52;14.13;;;4.57;;
26718;SDS011;14326;50.794;6.060;2023-06-26T03:47:18;16.98;;;5.25;;
26718;SDS011;14326;50.794;6.060;2023-06-26T03:49:45;14.48;;;4.90;;
26718;SDS011;14326;50.794;6.060;2023-06-26T03:52:11;15.88;;;5.15;;
26718;SDS011;14326;50.794;6.060;2023-06-26T03:54:38;15.18;;;5.35;;
26718;SDS011;14326;50.794;6.060;2023-06-26T03:57:06;14.82;;;5.47;;
26718;SDS011;14326;50.794;6.060;2023-06-26T03:59:47;14.93;;;4.93;;
26718;SDS011;14326;50.794;6.060;2023-06-26T04:02:19;14.27;;;4.97;;
26718;SDS011;14326;50.794;6.060;2023-06-26T04:05:10;15.23;;;4.78;;
26718;SDS011;14326;50.794;6.060;2023-06-26T04:07:39;15.68;;;4.88;;
26718;SDS011;14326;50.794;6.060;2023-06-26T04:10:20;14.90;;;4.65;;
26718;SDS011;14326;50.794;6.060;2023-06-26T04:12:48;17.10;;;5.38;;
26718;SDS011;14326;50.794;6.060;2023-06-26T04:15:14;13.77;;;4.40;;
26718;SDS011;14326;50.794;6.060;2023-06-26T04:17:41;14.73;;;4.80;;
26718;SDS011;14326;50.794;6.060;2023-06-26T04:20:08;15.45;;;4.57;;
26718;SDS011;14326;50.794;6.060;2023-06-26T04:22:35;14.57;;;4.18;;
26718;SDS011;14326;50.794;6.060;2023-06-26T04:25:02;17.13;;;5.07;;
26718;SDS011;14326;50.794;6.060;2023-06-26T04:27:30;15.68;;;4.55;;
26718;SDS011;14326;50.794;6.060;2023-06-26T04:29:58;13.05;;;4.07;;
26718;SDS011;14326;50.794;6.060;2023-06-26T04:32:25;16.10;;;4.20;;
26718;SDS011;14326;50.794;6.060;2023-06-26T04:34:51;15.90;;;4.60;;
26718;SDS011;14326;50.794;6.060;2023-06-26T04:37:18;12.07;;;3.70;;
26718;SDS011;14326;50.794;6.060;2023-06-26T04:39:45;12.38;;;4.28;;
26718;SDS011;14326;50.794;6.060;2023-06-26T04:42:12;13.45;;;3.60;;
26718;SDS011;14326;50.794;6.060;2023-06-26T04:44:38;15.13;;;4.47;;
26718;SDS011;14326;50.794;6.060;2023-06-26T04:47:07;11.52;;;4.00;;
26718;SDS011;14326;50.794;6.060;2023-06-26T04:49:34;18.05;;;4.88;;
26718;SDS011;14326;50.794;6.060;2023-06-26T04:52:01;14.93;;;3.97;;
26718;SDS011;14326;50.794;6.060;2023-06-26T04:54:28;17.40;;;4.53;;
26718;SDS011;14326;50.794;6.060;2023-06-26T04:56:54;14.10;;;4.30;;
26718;SDS011;14326;50.794;6.060;2023-06-26T04:59:24;11.65;;;3.75;;
26718;SDS011;14326;50.794;6.060;2023-06-26T05:01:51;15.60;;;4.25;;
26718;SDS011;14326;50.794;6.060;2023-06-26T05:04:19;12.65;;;4.20;;
26718;SDS011;14326;50.794;6.060;2023-06-26T05:06:46;15.75;;;3.60;;
26718;SDS011;14326;50.794;6.060;2023-06-26T05:09:12;16.00;;;4.05;;
26718;SDS011;14326;50.794;6.060;2023-06-26T05:11:39;13.52;;;4.05;;
26718;SDS011;14326;50.794;6.060;2023-06-26T05:14:06;15.93;;;4.32;;
26718;SDS011;14326;50.794;6.060;2023-06-26T05:16:34;15.15;;;4.60;;
26718;SDS011;14326;50.794;6.060;2023-06-26T05:20:48;12.25;;;3.80;;
26718;SDS011;14326;50.794;6.060;2023-06-26T05:23:15;14.48;;;3.83;;
26718;SDS011;14326;50.794;6.060;2023-06-26T05:25:42;14.80;;;4.05;;
26718;SDS011;14326;50.794;6.060;2023-06-26T05:28:09;17.42;;;4.60;;
26718;SDS011;14326;50.794;6.060;2023-06-26T05:30:37;15.95;;;4.65;;
26718;SDS011;14326;50.794;6.060;2023-06-26T05:33:04;16.73;;;4.63;;
26718;SDS011;14326;50.794;6.060;2023-06-26T05:35:31;17.10;;;4.45;;
26718;SDS011;14326;50.794;6.060;2023-06-26T05:37:59;20.98;;;4.47;;
26718;SDS011;14326;50.794;6.060;2023-06-26T05:40:32;17.75;;;4.90;;
26718;SDS011;14326;50.794;6.060;2023-06-26T05:43:11;18.27;;;4.57;;
26718;SDS011;14326;50.794;6.060;2023-06-26T05:45:37;16.98;;;4.13;;
26718;SDS011;14326;50.794;6.060;2023-06-26T05:48:04;16.98;;;4.75;;
26718;SDS011;14326;50.794;6.060;2023-06-26T05:50:31;17.33;;;4.72;;
26718;SDS011;14326;50.794;6.060;2023-06-26T05:53:02;19.17;;;4.72;;
26718;SDS011;14326;50.794;6.060;2023-06-26T05:55:33;20.33;;;5.25;;
26718;SDS011;14326;50.794;6.060;2023-06-26T05:57:59;24.05;;;5.22;;
26718;SDS011;14326;50.794;6.060;2023-06-26T06:00:26;15.02;;;4.78;;
26718;SDS011;14326;50.794;6.060;2023-06-26T06:02:53;18.73;;;5.38;;
26718;SDS011;14326;50.794;6.060;2023-06-26T06:05:25;18.23;;;5.63;;
26718;SDS011;14326;50.794;6.060;2023-06-26T06:08:11;19.40;;;5.35;;
26718;SDS011;14326;50.794;6.060;2023-06-26T06:10:52;18.25;;;5.13;;
26718;SDS011;14326;50.794;6.060;2023-06-26T06:13:25;20.42;;;5.35;;
26718;SDS011;14326;50.794;6.060;2023-06-26T06:15:52;20.17;;;5.70;;
26718;SDS011;14326;50.794;6.060;2023-06-26T06:18:18;18.27;;;4.95;;
26718;SDS011;14326;50.794;6.060;2023-06-26T06:20:44;18.63;;;5.38;;
26718;SDS011;14326;50.794;6.060;2023-06-26T06:23:12;17.50;;;5.95;;
26718;SDS011;14326;50.794;6.060;2023-06-26T06:25:39;18.73;;;5.63;;
26718;SDS011;14326;50.794;6.060;2023-06-26T06:28:05;19.63;;;6.20;;
26718;SDS011;14326;50.794;6.060;2023-06-26T06:30:32;21.38;;;6.30;;
26718;SDS011;14326;50.794;6.060;2023-06-26T06:32:58;20.58;;;5.25;;
26718;SDS011;14326;50.794;6.060;2023-06-26T06:35:25;18.90;;;5.13;;
26718;SDS011;14326;50.794;6.060;2023-06-26T06:37:51;19.55;;;5.28;;
26718;SDS011;14326;50.794;6.060;2023-06-26T06:40:19;20.70;;;6.57;;
26718;SDS011;14326;50.794;6.060;2023-06-26T06:42:47;16.90;;;4.60;;
26718;SDS011;14326;50.794;6.060;2023-06-26T06:45:14;22.92;;;6.07;;
26718;SDS011;14326;50.794;6.060;2023-06-26T06:47:41;17.52;;;4.68;;
26718;SDS011;14326;50.794;6.060;2023-06-26T06:50:07;17.90;;;4.85;;
26718;SDS011;14326;50.794;6.060;2023-06-26T06:52:37;19.73;;;4.88;;
26718;SDS011;14326;50.794;6.060;2023-06-26T06:55:05;21.92;;;5.50;;
26718;SDS011;14326;50.794;6.060;2023-06-26T06:57:35;18.10;;;5.47;;
26718;SDS011;14326;50.794;6.060;2023-06-26T07:00:03;20.35;;;5.05;;
26718;SDS011;14326;50.794;6.060;2023-06-26T07:02:30;17.30;;;4.70;;
26718;SDS011;14326;50.794;6.060;2023-06-26T07:04:56;21.25;;;4.88;;
26718;SDS011;14326;50.794;6.060;2023-06-26T07:07:23;21.27;;;4.90;;
26718;SDS011;14326;50.794;6.060;2023-06-26T07:09:49;21.20;;;5.38;;
26718;SDS011;14326;50.794;6.060;2023-06-26T07:12:16;18.17;;;4.45;;
26718;SDS011;14326;50.794;6.060;2023-06-26T07:14:43;18.67;;;4.90;;
26718;SDS011;14326;50.794;6.060;2023-06-26T07:17:10;21.65;;;4.32;;
26718;SDS011;14326;50.794;6.060;2023-06-26T07:19:36;17.20;;;4.85;;
26718;SDS011;14326;50.794;6.060;2023-06-26T07:22:03;19.60;;;5.28;;
26718;SDS011;14326;50.794;6.060;2023-06-26T07:24:29;16.27;;;4.82;;
26718;SDS011;14326;50.794;6.060;2023-06-26T07:26:57;15.13;;;4.85;;
26718;SDS011;14326;50.794;6.060;2023-06-26T07:29:23;15.93;;;4.28;;
26718;SDS011;14326;50.794;6.060;2023-06-26T07:31:51;16.25;;;4.40;;
26718;SDS011;14326;50.794;6.060;2023-06-26T07:34:17;20.48;;;4.90;;
26718;SDS011;14326;50.794;6.060;2023-06-26T07:36:44;19.90;;;4.72;;
26718;SDS011;14326;50.794;6.060;2023-06-26T07:39:10;22.52;;;4.95;;
26718;SDS011;14326;50.794;6.060;2023-06-26T07:41:37;17.40;;;4.75;;
26718;SDS011;14326;50.794;6.060;2023-06-26T07:44:03;18.38;;;4.22;;
26718;SDS011;14326;50.794;6.060;2023-06-26T07:46:30;17.38;;;3.67;;
26718;SDS011;14326;50.794;6.060;2023-06-26T07:48:57;14.35;;;3.95;;
26718;SDS011;14326;50.794;6.060;2023-06-26T07:51:24;17.60;;;4.10;;
26718;SDS011;14326;50.794;6.060;2023-06-26T07:53:50;19.55;;;4.40;;
26718;SDS011;14326;50.794;6.060;2023-06-26T07:56:25;15.40;;;4.55;;
26718;SDS011;14326;50.794;6.060;2023-06-26T07:58:52;18.83;;;4.18;;
26718;SDS011;14326;50.794;6.060;2023-06-26T08:01:18;21.60;;;4.32;;
26718;SDS011;14326;50.794;6.060;2023-06-26T08:03:45;16.80;;;4.82;;
26718;SDS011;14326;50.794;6.060;2023-06-26T08:06:13;21.48;;;3.95;;
26718;SDS011;14326;50.794;6.060;2023-06-26T08:08:39;19.02;;;4.32;;
26718;SDS011;14326;50.794;6.060;2023-06-26T08:11:06;18.48;;;4.03;;
26718;SDS011;14326;50.794;6.060;2023-06-26T08:13:32;16.23;;;3.53;;
26718;SDS011;14326;50.794;6.060;2023-06-26T08:15:58;15.55;;;3.72;;
26718;SDS011;14326;50.794;6.060;2023-06-26T08:18:25;18.63;;;3.63;;
26718;SDS011;14326;50.794;6.060;2023-06-26T08:20:51;16.27;;;3.60;;
26718;SDS011;14326;50.794;6.060;2023-06-26T08:23:29;17.15;;;4.03;;
26718;SDS011;14326;50.794;6.060;2023-06-26T08:26:03;19.27;;;4.05;;
26718;SDS011;14326;50.794;6.060;2023-06-26T08:28:29;17.48;;;3.38;;
26718;SDS011;14326;50.794;6.060;2023-06-26T08:30:55;15.77;;;3.13;;
26718;SDS011;14326;50.794;6.060;2023-06-26T08:33:22;15.95;;;3.95;;
26718;SDS011;14326;50.794;6.060;2023-06-26T08:35:49;16.13;;;3.42;;
26718;SDS011;14326;50.794;6.060;2023-06-26T08:38:16;15.77;;;4.13;;
26718;SDS011;14326;50.794;6.060;2023-06-26T08:40:43;18.40;;;3.20;;
26718;SDS011;14326;50.794;6.060;2023-06-26T08:43:10;18.65;;;3.22;;
26718;SDS011;14326;50.794;6.060;2023-06-26T08:45:36;14.82;;;3.38;;
26718;SDS011;14326;50.794;6.060;2023-06-26T08:48:03;19.70;;;3.92;;
26718;SDS011;14326;50.794;6.060;2023-06-26T08:50:33;19.87;;;4.63;;
26718;SDS011;14326;50.794;6.060;2023-06-26T08:53:02;16.13;;;3.42;;
26718;SDS011;14326;50.794;6.060;2023-06-26T08:55:32;20.30;;;3.85;;
26718;SDS011;14326;50.794;6.060;2023-06-26T08:58:00;15.25;;;3.58;;
26718;SDS011;14326;50.794;6.060;2023-06-26T09:00:27;14.25;;;2.83;;
26718;SDS011;14326;50.794;6.060;2023-06-26T09:02:56;17.30;;;3.60;;
26718;SDS011;14326;50.794;6.060;2023-06-26T09:05:37;18.95;;;3.60;;
26718;SDS011;14326;50.794;6.060;2023-06-26T09:08:06;17.00;;;3.42;;
26718;SDS011;14326;50.794;6.060;2023-06-26T09:10:33;17.23;;;3.60;;
26718;SDS011;14326;50.794;6.060;2023-06-26T09:13:02;17.15;;;3.28;;
26718;SDS011;14326;50.794;6.060;2023-06-26T09:15:42;12.43;;;2.83;;
26718;SDS011;14326;50.794;6.060;2023-06-26T09:18:10;18.75;;;3.50;;
26718;SDS011;14326;50.794;6.060;2023-06-26T09:20:37;13.93;;;3.17;;
26718;SDS011;14326;50.794;6.060;2023-06-26T09:23:05;16.10;;;3.28;;
26718;SDS011;14326;50.794;6.060;2023-06-26T09:25:31;13.80;;;3.17;;
26718;SDS011;14326;50.794;6.060;2023-06-26T09:28:05;16.90;;;4.60;;
26718;SDS011;14326;50.794;6.060;2023-06-26T09:30:31;14.77;;;2.90;;
26718;SDS011;14326;50.794;6.060;2023-06-26T09:32:58;16.48;;;3.13;;
26718;SDS011;14326;50.794;6.060;2023-06-26T09:35:38;13.60;;;3.42;;
26718;SDS011;14326;50.794;6.060;2023-06-26T09:38:05;16.92;;;3.53;;
26718;SDS011;14326;50.794;6.060;2023-06-26T09:40:31;14.30;;;2.78;;
26718;SDS011;14326;50.794;6.060;2023-06-26T09:43:02;12.35;;;2.85;;
26718;SDS011;14326;50.794;6.060;2023-06-26T09:45:29;10.75;;;2.67;;
26718;SDS011;14326;50.794;6.060;2023-06-26T09:47:59;14.55;;;2.83;;
26718;SDS011;14326;50.794;6.060;2023-06-26T09:50:26;15.00;;;3.22;;
26718;SDS011;14326;50.794;6.060;2023-06-26T09:52:52;13.55;;;2.90;;
26718;SDS011;14326;50.794;6.060;2023-06-26T09:55:19;14.73;;;2.75;;
26718;SDS011;14326;50.794;6.060;2023-06-26T09:57:47;12.02;;;2.75;;
26718;SDS011;14326;50.794;6.060;2023-06-26T10:00:14;14.63;;;2.85;;
26718;SDS011;14326;50.794;6.060;2023-06-26T10:02:42;15.73;;;3.45;;
26718;SDS011;14326;50.794;6.060;2023-06-26T10:05:17;16.35;;;3.20;;
26718;SDS011;14326;50.794;6.060;2023-06-26T10:07:46;21.55;;;3.00;;
26718;SDS011;14326;50.794;6.060;2023-06-26T10:10:26;10.95;;;2.95;;
26718;SDS011;14326;50.794;6.060;2023-06-26T10:12:54;12.68;;;2.83;;
26718;SDS011;14326;50.794;6.060;2023-06-26T10:15:22;16.15;;;2.78;;
26718;SDS011;14326;50.794;6.060;2023-06-26T10:17:50;14.10;;;2.70;;
26718;SDS011;14326;50.794;6.060;2023-06-26T10:22:46;13.35;;;2.72;;
26718;SDS011;14326;50.794;6.060;2023-06-26T10:25:14;13.05;;;2.45;;
26718;SDS011;14326;50.794;6.060;2023-06-26T10:27:43;12.93;;;2.50;;
26718;SDS011;14326;50.794;6.060;2023-06-26T10:30:11;12.27;;;2.55;;
26718;SDS011;14326;50.794;6.060;2023-06-26T10:32:39;14.93;;;3.00;;
26718;SDS011;14326;50.794;6.060;2023-06-26T10:35:07;17.15;;;2.85;;
26718;SDS011;14326;50.794;6.060;2023-06-26T10:37:41;13.00;;;2.53;;
26718;SDS011;14326;50.794;6.060;2023-06-26T10:40:08;12.05;;;2.85;;
26718;SDS011;14326;50.794;6.060;2023-06-26T10:42:35;12.10;;;2.25;;
26718;SDS011;14326;50.794;6.060;2023-06-26T10:45:08;10.10;;;2.15;;
26718;SDS011;14326;50.794;6.060;2023-06-26T10:47:35;12.25;;;2.25;;
26718;SDS011;14326;50.794;6.060;2023-06-26T10:50:22;9.05;;;1.98;;
26718;SDS011;14326;50.794;6.060;2023-06-26T10:55:41;10.23;;;2.30;;
26718;SDS011;14326;50.794;6.060;2023-06-26T11:00:52;9.10;;;2.15;;
26718;SDS011;14326;50.794;6.060;2023-06-26T11:03:24;14.48;;;2.78;;
26718;SDS011;14326;50.794;6.060;2023-06-26T11:06:04;10.38;;;2.35;;
26718;SDS011;14326;50.794;6.060;2023-06-26T11:08:43;11.35;;;2.70;;
26718;SDS011;14326;50.794;6.060;2023-06-26T11:11:10;10.38;;;2.40;;
26718;SDS011;14326;50.794;6.060;2023-06-26T11:13:36;8.25;;;2.28;;
26718;SDS011;14326;50.794;6.060;2023-06-26T11:16:03;12.63;;;2.65;;
26718;SDS011;14326;50.794;6.060;2023-06-26T11:18:31;10.25;;;1.92;;
26718;SDS011;14326;50.794;6.060;2023-06-26T11:21:05;6.97;;;2.00;;
26718;SDS011;14326;50.794;6.060;2023-06-26T11:23:31;8.18;;;1.60;;
26718;SDS011;14326;50.794;6.060;2023-06-26T11:26:11;7.40;;;2.28;;
26718;SDS011;14326;50.794;6.060;2023-06-26T11:28:38;6.55;;;2.08;;
26718;SDS011;14326;50.794;6.060;2023-06-26T11:31:05;9.35;;;2.10;;
26718;SDS011;14326;50.794;6.060;2023-06-26T11:33:31;8.30;;;2.25;;
26718;SDS011;14326;50.794;6.060;2023-06-26T11:36:08;8.75;;;2.10;;
26718;SDS011;14326;50.794;6.060;2023-06-26T11:38:36;10.10;;;2.25;;
26718;SDS011;14326;50.794;6.060;2023-06-26T11:41:03;12.88;;;1.70;;
26718;SDS011;14326;50.794;6.060;2023-06-26T11:43:33;9.05;;;1.88;;
26718;SDS011;14326;50.794;6.060;2023-06-26T11:45:59;7.13;;;1.70;;
26718;SDS011;14326;50.794;6.060;2023-06-26T11:48:26;9.23;;;2.15;;
26718;SDS011;14326;50.794;6.060;2023-06-26T11:50:53;11.85;;;2.03;;
26718;SDS011;14326;50.794;6.060;2023-06-26T11:53:21;12.73;;;1.80;;
26718;SDS011;14326;50.794;6.060;2023-06-26T11:55:48;8.90;;;1.73;;
26718;SDS011;14326;50.794;6.060;2023-06-26T11:58:14;9.63;;;1.73;;
26718;SDS011;14326;50.794;6.060;2023-06-26T12:00:41;6.75;;;1.90;;
26718;SDS011;14326;50.794;6.060;2023-06-26T12:03:07;9.93;;;1.75;;
26718;SDS011;14326;50.794;6.060;2023-06-26T12:05:34;10.77;;;1.98;;
26718;SDS011;14326;50.794;6.060;2023-06-26T12:08:00;10.70;;;1.95;;
26718;SDS011;14326;50.794;6.060;2023-06-26T12:10:29;10.05;;;1.80;;
26718;SDS011;14326;50.794;6.060;2023-06-26T12:12:56;7.20;;;1.73;;
26718;SDS011;14326;50.794;6.060;2023-06-26T12:15:24;30.30;;;2.55;;
26718;SDS011;14326;50.794;6.060;2023-06-26T12:17:50;8.75;;;1.77;;
26718;SDS011;14326;50.794;6.060;2023-06-26T12:20:17;12.57;;;1.95;;
26718;SDS011;14326;50.794;6.060;2023-06-26T12:22:45;7.45;;;1.90;;
26718;SDS011;14326;50.794;6.060;2023-06-26T12:25:12;9.68;;;2.00;;
26718;SDS011;14326;50.794;6.060;2023-06-26T12:27:40;15.20;;;2.20;;
26718;SDS011;14326;50.794;6.060;2023-06-26T12:30:07;10.32;;;2.30;;
26718;SDS011;14326;50.794;6.060;2023-06-26T12:32:34;7.53;;;2.08;;
26718;SDS011;14326;50.794;6.060;2023-06-26T12:35:00;12.43;;;2.25;;
26718;SDS011;14326;50.794;6.060;2023-06-26T12:37:27;11.02;;;1.95;;
26718;SDS011;14326;50.794;6.060;2023-06-26T12:39:54;13.13;;;2.05;;
26718;SDS011;14326;50.794;6.060;2023-06-26T12:42:21;9.27;;;1.80;;
26718;SDS011;14326;50.794;6.060;2023-06-26T12:44:50;7.50;;;2.17;;
26718;SDS011;14326;50.794;6.060;2023-06-26T12:47:17;11.40;;;1.92;;
26718;SDS011;14326;50.794;6.060;2023-06-26T12:49:44;12.65;;;2.15;;
26718;SDS011;14326;50.794;6.060;2023-06-26T12:52:11;12.05;;;1.90;;
26718;SDS011;14326;50.794;6.060;2023-06-26T12:54:38;9.30;;;2.03;;
26718;SDS011;14326;50.794;6.060;2023-06-26T12:57:05;9.30;;;1.60;;
26718;SDS011;14326;50.794;6.060;2023-06-26T12:59:31;8.02;;;2.00;;
26718;SDS011;14326;50.794;6.060;2023-06-26T13:01:59;18.98;;;2.03;;
26718;SDS011;14326;50.794;6.060;2023-06-26T13:04:26;9.68;;;2.00;;
26718;SDS011;14326;50.794;6.060;2023-06-26T13:06:52;9.48;;;1.80;;
26718;SDS011;14326;50.794;6.060;2023-06-26T13:09:19;8.43;;;1.90;;
26718;SDS011;14326;50.794;6.060;2023-06-26T13:11:46;8.00;;;1.98;;
26718;SDS011;14326;50.794;6.060;2023-06-26T13:14:12;6.15;;;1.75;;
26718;SDS011;14326;50.794;6.060;2023-06-26T13:16:39;13.65;;;2.78;;
26718;SDS011;14326;50.794;6.060;2023-06-26T13:19:07;12.13;;;2.17;;
26718;SDS011;14326;50.794;6.060;2023-06-26T13:21:33;13.95;;;1.73;;
26718;SDS011;14326;50.794;6.060;2023-06-26T13:24:00;11.30;;;1.80;;
26718;SDS011;14326;50.794;6.060;2023-06-26T13:26:26;9.88;;;2.15;;
26718;SDS011;14326;50.794;6.060;2023-06-26T13:28:53;12.15;;;2.10;;
26718;SDS011;14326;50.794;6.060;2023-06-26T13:31:20;11.68;;;2.30;;
26718;SDS011;14326;50.794;6.060;2023-06-26T13:33:47;8.23;;;1.70;;
26718;SDS011;14326;50.794;6.060;2023-06-26T13:36:16;8.80;;;1.92;;
26718;SDS011;14326;50.794;6.060;2023-06-26T13:38:42;6.63;;;1.65;;
26718;SDS011;14326;50.794;6.060;2023-06-26T13:41:08;10.45;;;1.90;;
26718;SDS011;14326;50.794;6.060;2023-06-26T13:43:35;6.68;;;1.50;;
26718;SDS011;14326;50.794;6.060;2023-06-26T13:46:02;8.70;;;1.50;;
26718;SDS011;14326;50.794;6.060;2023-06-26T13:48:28;8.30;;;1.50;;
26718;SDS011;14326;50.794;6.060;2023-06-26T13:50:55;9.02;;;1.92;;
26718;SDS011;14326;50.794;6.060;2023-06-26T13:53:25;7.70;;;1.50;;
26718;SDS011;14326;50.794;6.060;2023-06-26T13:55:51;5.35;;;1.42;;
26718;SDS011;14326;50.794;6.060;2023-06-26T13:58:17;6.32;;;1.50;;
26718;SDS011;14326;50.794;6.060;2023-06-26T14:00:47;9.48;;;1.70;;
26718;SDS011;14326;50.794;6.060;2023-06-26T14:03:14;8.05;;;1.88;;
26718;SDS011;14326;50.794;6.060;2023-06-26T14:05:40;12.50;;;1.73;;
26718;SDS011;14326;50.794;6.060;2023-06-26T14:08:07;10.00;;;1.95;;
26718;SDS011;14326;50.794;6.060;2023-06-26T14:10:35;6.65;;;1.70;;
26718;SDS011;14326;50.794;6.060;2023-06-26T14:13:01;10.02;;;1.80;;
26718;SDS011;14326;50.794;6.060;2023-06-26T14:15:28;6.88;;;1.38;;
26718;SDS011;14326;50.794;6.060;2023-06-26T14:20:44;9.00;;;2.03;;
26718;SDS011;14326;50.794;6.060;2023-06-26T14:23:13;8.80;;;2.03;;
26718;SDS011;14326;50.794;6.060;2023-06-26T14:25:41;5.20;;;1.40;;
26718;SDS011;14326;50.794;6.060;2023-06-26T14:28:08;8.82;;;1.35;;
26718;SDS011;14326;50.794;6.060;2023-06-26T14:30:34;5.63;;;1.60;;
26718;SDS011;14326;50.794;6.060;2023-06-26T14:33:00;8.23;;;1.67;;
26718;SDS011;14326;50.794;6.060;2023-06-26T14:35:27;7.28;;;1.70;;
26718;SDS011;14326;50.794;6.060;2023-06-26T14:37:59;6.88;;;1.95;;
26718;SDS011;14326;50.794;6.060;2023-06-26T14:40:29;7.55;;;1.80;;
26718;SDS011;14326;50.794;6.060;2023-06-26T14:42:57;6.38;;;1.73;;
26718;SDS011;14326;50.794;6.060;2023-06-26T14:45:24;9.52;;;1.77;;
26718;SDS011;14326;50.794;6.060;2023-06-26T14:47:50;9.73;;;2.03;;
26718;SDS011;14326;50.794;6.060;2023-06-26T14:50:16;11.63;;;2.42;;
26718;SDS011;14326;50.794;6.060;2023-06-26T14:52:43;13.23;;;1.85;;
26718;SDS011;14326;50.794;6.060;2023-06-26T14:55:09;7.63;;;1.95;;
26718;SDS011;14326;50.794;6.060;2023-06-26T14:57:36;6.28;;;1.48;;
26718;SDS011;14326;50.794;6.060;2023-06-26T15:00:07;7.55;;;1.77;;
26718;SDS011;14326;50.794;6.060;2023-06-26T15:02:33;8.00;;;1.70;;
26718;SDS011;14326;50.794;6.060;2023-06-26T15:05:00;6.30;;;1.85;;
26718;SDS011;14326;50.794;6.060;2023-06-26T15:07:26;13.95;;;2.35;;
26718;SDS011;14326;50.794;6.060;2023-06-26T15:09:52;6.43;;;1.75;;
26718;SDS011;14326;50.794;6.060;2023-06-26T15:12:19;11.45;;;2.30;;
26718;SDS011;14326;50.794;6.060;2023-06-26T15:14:45;10.60;;;2.25;;
26718;SDS011;14326;50.794;6.060;2023-06-26T15:17:13;7.85;;;2.00;;